createdAt,value
2023-02-06T00:00:11.109Z,100172.72
2023-02-06T00:02:14.176Z,100175.25
2023-02-06T00:04:17.332Z,100172.69
2023-02-06T00:06:20.445Z,100172.69
2023-02-06T00:08:23.492Z,100174.38
2023-02-06T00:10:26.621Z,100180.34
2023-02-06T00:12:30.954Z,100177.72
2023-02-06T00:14:33.942Z,100184.63
2023-02-06T00:16:37.006Z,100187.16
2023-02-06T00:18:39.967Z,100184.56
2023-02-06T00:20:42.969Z,100183.66
2023-02-06T00:22:45.937Z,100190.53
2023-02-06T00:24:48.984Z,100181.06
2023-02-06T00:26:51.941Z,100181.06
2023-02-06T00:28:56.506Z,100187.13
2023-02-06T00:31:00.913Z,100176.84
2023-02-06T00:33:04.061Z,100185.41
2023-02-06T00:35:07.721Z,100177.66
2023-02-06T00:37:10.744Z,100176.84
2023-02-06T00:39:13.644Z,100173.34
2023-02-06T00:41:16.893Z,100173.34
2023-02-06T00:43:19.851Z,100185.41
2023-02-06T00:45:24.228Z,100177.63
2023-02-06T00:47:27.192Z,100179.25
2023-02-06T00:49:30.235Z,100179.25
2023-02-06T00:51:33.191Z,100177.56
2023-02-06T00:53:37.171Z,100169.81
2023-02-06T00:55:40.124Z,100167.22
2023-02-06T00:57:43.097Z,100167.19
2023-02-06T00:59:46.020Z,100179.22
2023-02-06T01:01:50.474Z,100166.25
2023-02-06T01:03:53.518Z,100162.81
2023-02-06T01:05:56.510Z,100168.78
2023-02-06T01:07:59.530Z,100166.22
2023-02-06T01:10:02.585Z,100168.78
2023-02-06T01:12:06.325Z,100170.53
2023-02-06T01:14:09.308Z,100166.22
2023-02-06T01:16:14.539Z,100177.38
2023-02-06T01:18:19.065Z,100180.81
2023-02-06T01:20:23.820Z,100187.72
2023-02-06T01:22:26.986Z,100182.53
2023-02-06T01:24:30.172Z,100182.53
2023-02-06T01:26:33.180Z,100176.50
2023-02-06T01:28:36.911Z,100184.28
2023-02-06T01:30:40.244Z,100178.22
2023-02-06T01:32:43.466Z,100175.66
2023-02-06T01:34:47.841Z,100184.22
2023-02-06T01:36:50.763Z,100176.50
2023-02-06T01:38:53.985Z,100179.09
2023-02-06T01:40:57.651Z,100171.34
2023-02-06T01:43:02.053Z,100171.31
2023-02-06T01:45:37.236Z,100172.16
2023-02-06T01:47:40.509Z,100167.00
2023-02-06T01:49:45.625Z,100166.09
2023-02-06T01:51:51.083Z,100168.69
2023-02-06T01:53:56.329Z,100167.00
2023-02-06T01:56:01.550Z,100166.16
2023-02-06T01:58:05.849Z,100172.19
2023-02-06T02:00:11.388Z,100173.94
2023-02-06T02:02:17.486Z,100171.31
2023-02-06T02:04:22.854Z,100183.38
2023-02-06T02:06:27.504Z,100173.94
2023-02-06T02:08:36.637Z,100173.09
2023-02-06T02:10:39.926Z,100179.13
2023-02-06T02:12:42.943Z,100183.41
2023-02-06T02:14:47.354Z,100180.84
2023-02-06T02:16:57.999Z,100170.47
2023-02-06T02:19:17.536Z,100173.94
2023-02-06T02:22:08.362Z,100162.00
2023-02-06T02:24:15.081Z,100165.53
2023-02-06T02:26:36.522Z,100170.78
2023-02-06T02:29:13.897Z,100167.34
2023-02-06T02:31:38.968Z,100165.59
2023-02-06T02:34:08.033Z,100170.78
2023-02-06T02:36:15.305Z,100169.06
2023-02-06T02:38:31.302Z,100168.16
2023-02-06T02:40:41.221Z,100152.69
2023-02-06T02:42:49.064Z,100157.88
2023-02-06T02:44:55.852Z,100149.31
2023-02-06T02:47:03.149Z,100145.91
2023-02-06T02:49:09.425Z,100143.31
2023-02-06T02:51:14.535Z,100147.56
2023-02-06T02:53:18.255Z,100160.50
2023-02-06T02:55:23.525Z,100154.50
2023-02-06T02:57:33.164Z,100156.22
2023-02-06T02:59:38.215Z,100150.19
2023-02-06T03:01:44.545Z,100154.47
2023-02-06T03:03:49.602Z,100161.38
2023-02-06T03:06:02.275Z,100168.28
2023-02-06T03:08:14.274Z,100164.88
2023-02-06T03:10:24.096Z,100160.59
2023-02-06T03:12:35.542Z,100163.25
2023-02-06T03:14:42.535Z,100161.59
2023-02-06T03:16:49.013Z,100152.97
2023-02-06T03:18:56.892Z,100153.00
2023-02-06T03:21:01.038Z,100158.16
2023-02-06T03:23:05.513Z,100153.88
2023-02-06T03:25:13.477Z,100153.03
2023-02-06T03:27:17.096Z,100150.50
2023-02-06T03:29:20.288Z,100149.72
2023-02-06T03:31:27.774Z,100143.84
2023-02-06T03:33:33.728Z,100145.66
2023-02-06T03:35:38.187Z,100140.56
2023-02-06T03:37:41.383Z,100143.28
2023-02-06T03:39:45.103Z,100133.91
2023-02-06T03:41:50.225Z,100139.16
2023-02-06T03:43:53.683Z,100141.78
2023-02-06T03:46:00.167Z,100151.28
2023-02-06T03:48:05.893Z,100147.03
2023-02-06T03:50:10.658Z,100144.50
2023-02-06T03:52:15.066Z,100147.94
2023-02-06T03:54:19.886Z,100153.94
2023-02-06T03:56:29.415Z,100157.38
2023-02-06T03:58:34.247Z,100159.97
2023-02-06T04:00:38.848Z,100160.00
2023-02-06T04:02:42.166Z,100165.13
2023-02-06T04:04:46.532Z,100161.59
2023-02-06T04:06:49.464Z,100161.56
2023-02-06T04:08:52.488Z,100169.28
2023-02-06T04:10:55.457Z,100164.13
2023-02-06T04:12:58.603Z,100165.84
2023-02-06T04:15:02.951Z,100164.97
2023-02-06T04:17:07.180Z,100164.97
2023-02-06T04:19:10.169Z,100154.75
2023-02-06T04:21:13.098Z,100158.19
2023-02-06T04:23:16.159Z,100159.91
2023-02-06T04:25:21.265Z,100175.28
2023-02-06T04:27:24.490Z,100163.25
2023-02-06T04:29:27.716Z,100163.25
2023-02-06T04:31:32.481Z,100162.31
2023-02-06T04:33:35.654Z,100171.75
2023-02-06T04:35:38.683Z,100165.72
2023-02-06T04:37:41.812Z,100164.81
2023-02-06T04:39:44.796Z,100164.75
2023-02-06T04:41:47.924Z,100171.59
2023-02-06T04:43:50.905Z,100169.00
2023-02-06T04:45:54.054Z,100174.13
2023-02-06T04:47:59.601Z,100176.66
2023-02-06T04:50:02.688Z,100172.34
2023-02-06T04:52:06.153Z,100155.97
2023-02-06T04:54:09.348Z,100157.63
2023-02-06T04:56:13.744Z,100154.19
2023-02-06T04:58:16.770Z,100160.19
2023-02-06T05:00:19.895Z,100160.16
2023-02-06T05:02:22.957Z,100155.88
2023-02-06T05:04:28.505Z,100150.69
2023-02-06T05:06:31.763Z,100160.13
2023-02-06T05:08:34.746Z,100158.41
2023-02-06T05:10:37.887Z,100161.00
2023-02-06T05:12:40.804Z,100155.84
2023-02-06T05:14:43.700Z,100158.41
2023-02-06T05:16:46.584Z,100160.94
2023-02-06T05:18:54.074Z,100159.28
2023-02-06T05:20:58.397Z,100163.66
2023-02-06T05:23:01.314Z,100174.00
2023-02-06T05:25:04.418Z,100173.19
2023-02-06T05:27:07.393Z,100174.03
2023-02-06T05:29:10.402Z,100166.34
2023-02-06T05:31:18.313Z,100168.97
2023-02-06T05:33:21.499Z,100159.53
2023-02-06T05:35:25.144Z,100158.66
2023-02-06T05:37:29.584Z,100160.34
2023-02-06T05:39:32.598Z,100164.75
2023-02-06T05:41:35.778Z,100163.91
2023-02-06T05:43:39.404Z,100161.38
2023-02-06T05:45:42.378Z,100162.31
2023-02-06T05:47:45.350Z,100162.38
2023-02-06T05:49:48.768Z,100163.25
2023-02-06T05:51:51.814Z,100160.63
2023-02-06T05:53:56.249Z,100164.03
2023-02-06T05:55:59.230Z,100153.69
2023-02-06T05:58:02.185Z,100147.66
2023-02-06T06:00:06.665Z,100150.19
2023-02-06T06:02:14.810Z,100149.28
2023-02-06T06:04:17.968Z,100155.28
2023-02-06T06:06:21.000Z,100161.28
2023-02-06T06:08:24.015Z,100173.25
2023-02-06T06:10:28.619Z,100168.16
2023-02-06T06:12:31.671Z,100167.31
2023-02-06T06:14:34.751Z,100163.09
2023-02-06T06:16:37.757Z,100172.63
2023-02-06T06:18:40.691Z,100158.16
2023-02-06T06:20:43.732Z,100159.03
2023-02-06T06:22:46.723Z,100179.66
2023-02-06T06:24:49.697Z,100188.28
2023-02-06T06:26:54.239Z,100183.22
2023-02-06T06:28:57.514Z,100181.56
2023-02-06T06:31:04.497Z,100172.13
2023-02-06T06:33:07.584Z,100166.97
2023-02-06T06:35:10.535Z,100166.13
2023-02-06T06:37:13.524Z,100170.41
2023-02-06T06:39:16.472Z,100175.56
2023-02-06T06:41:19.521Z,100170.47
2023-02-06T06:43:23.937Z,100178.19
2023-02-06T06:45:26.950Z,100173.88
2023-02-06T06:47:29.991Z,100172.06
2023-02-06T06:49:33.285Z,100184.06
2023-02-06T06:51:36.268Z,100173.72
2023-02-06T06:53:40.123Z,100185.72
2023-02-06T06:55:43.462Z,100180.50
2023-02-06T06:57:46.522Z,100180.44
2023-02-06T06:59:50.958Z,100180.41
2023-02-06T07:01:53.957Z,100180.38
2023-02-06T07:03:57.013Z,100183.81
2023-02-06T07:06:00.135Z,100176.13
2023-02-06T07:08:03.208Z,100182.97
2023-02-06T07:10:07.583Z,100185.53
2023-02-06T07:12:10.732Z,100186.38
2023-02-06T07:14:13.889Z,100180.31
2023-02-06T07:16:18.515Z,100184.56
2023-02-06T07:18:22.230Z,100197.44
2023-02-06T07:20:25.270Z,100198.25
2023-02-06T07:22:28.312Z,100196.53
2023-02-06T07:24:31.465Z,100198.16
2023-02-06T07:26:34.654Z,100202.44
2023-02-06T07:28:37.735Z,100201.63
2023-02-06T07:30:40.785Z,100199.16
2023-02-06T07:32:45.148Z,100191.53
2023-02-06T07:34:48.191Z,100191.59
2023-02-06T07:36:51.402Z,100198.38
2023-02-06T07:38:54.451Z,100188.91
2023-02-06T07:41:02.405Z,100192.34
2023-02-06T07:43:07.254Z,100190.59
2023-02-06T07:45:11.955Z,100188.97
2023-02-06T07:47:14.988Z,100190.63
2023-02-06T07:49:19.452Z,100189.72
2023-02-06T07:51:22.951Z,100181.09
2023-02-06T07:53:26.363Z,100177.63
2023-02-06T07:55:30.053Z,100172.44
2023-02-06T07:57:33.114Z,100174.09
2023-02-06T07:59:36.123Z,100181.78
2023-02-06T08:01:39.190Z,100180.88
2023-02-06T08:03:42.201Z,100186.00
2023-02-06T08:05:46.841Z,100193.75
2023-02-06T08:07:51.925Z,100191.16
2023-02-06T08:09:55.029Z,100177.38
2023-02-06T08:11:58.347Z,100176.53
2023-02-06T08:14:01.522Z,100179.97
2023-02-06T08:16:06.496Z,100180.84
2023-02-06T08:18:10.366Z,100177.41
2023-02-06T08:20:13.916Z,100172.22
2023-02-06T08:22:18.398Z,100173.91
2023-02-06T08:24:21.423Z,100180.75
2023-02-06T08:26:25.044Z,100181.63
2023-02-06T08:28:28.159Z,100187.59
2023-02-06T08:30:32.439Z,100192.72
2023-02-06T08:32:36.466Z,100198.72
2023-02-06T08:34:40.462Z,100189.28
2023-02-06T08:36:44.267Z,100187.56
2023-02-06T08:38:49.343Z,100179.81
2023-02-06T08:40:52.469Z,100186.69
2023-02-06T08:42:55.878Z,100180.59
2023-02-06T08:44:58.907Z,100180.59
2023-02-06T08:47:10.068Z,100176.28
2023-02-06T08:49:15.133Z,100187.41
2023-02-06T08:51:18.261Z,100187.38
2023-02-06T08:53:21.257Z,100187.34
2023-02-06T08:55:25.866Z,100183.84
2023-02-06T08:57:29.001Z,100191.56
2023-02-06T08:59:32.239Z,100187.25
2023-02-06T09:01:36.700Z,100182.94
2023-02-06T09:03:39.690Z,100184.72
2023-02-06T09:05:42.964Z,100176.09
2023-02-06T09:07:46.195Z,100176.09
2023-02-06T09:09:49.407Z,100171.81
2023-02-06T09:11:55.436Z,100175.22
2023-02-06T09:13:59.689Z,100176.94
2023-02-06T09:16:03.202Z,100173.47
2023-02-06T09:18:06.677Z,100178.59
2023-02-06T09:20:10.672Z,100186.34
2023-02-06T09:22:14.105Z,100188.97
2023-02-06T09:24:17.148Z,100180.41
2023-02-06T09:26:23.904Z,100174.41
2023-02-06T09:28:28.779Z,100174.41
2023-02-06T09:30:32.227Z,100175.31
2023-02-06T09:32:35.307Z,100167.53
2023-02-06T09:34:38.408Z,100172.66
2023-02-06T09:36:41.756Z,100170.03
2023-02-06T09:38:46.922Z,100162.31
2023-02-06T09:40:50.051Z,100151.09
2023-02-06T09:42:54.044Z,100149.31
2023-02-06T09:45:04.577Z,100136.31
2023-02-06T09:47:16.273Z,100139.78
2023-02-06T09:49:22.276Z,100140.63
2023-02-06T09:51:40.448Z,100129.34
2023-02-06T09:53:49.004Z,100131.00
2023-02-06T09:55:56.895Z,100134.38
2023-02-06T09:58:05.964Z,100128.31
2023-02-06T10:00:17.188Z,100137.66
2023-02-06T10:02:30.841Z,100134.19
2023-02-06T10:04:42.036Z,100132.34
2023-02-06T10:06:51.389Z,100126.28
2023-02-06T10:09:01.007Z,100127.03
2023-02-06T10:11:10.632Z,100115.81
2023-02-06T10:13:17.292Z,100111.47
2023-02-06T10:15:28.985Z,100118.31
2023-02-06T10:17:35.023Z,100111.38
2023-02-06T10:19:43.645Z,100106.16
2023-02-06T10:21:51.663Z,100101.78
2023-02-06T10:23:59.791Z,100099.13
2023-02-06T10:26:08.051Z,100106.00
2023-02-06T10:28:21.985Z,100108.59
2023-02-06T10:30:37.084Z,100103.41
2023-02-06T10:32:46.554Z,100099.97
2023-02-06T10:35:01.129Z,100097.31
2023-02-06T10:37:17.626Z,100098.97
2023-02-06T10:39:42.431Z,100098.94
2023-02-06T10:41:51.798Z,100098.16
2023-02-06T10:43:57.178Z,100097.34
2023-02-06T10:46:13.998Z,100097.31
2023-02-06T10:48:23.996Z,100092.16
2023-02-06T10:50:28.952Z,100093.88
2023-02-06T10:52:34.721Z,100088.69
2023-02-06T10:54:40.099Z,100086.13
2023-02-06T10:56:45.109Z,100087.84
2023-02-06T10:58:52.433Z,100078.31
2023-02-06T11:00:56.437Z,100092.97
2023-02-06T11:03:07.685Z,100081.75
2023-02-06T11:05:14.223Z,100076.66
2023-02-06T11:07:20.742Z,100080.97
2023-02-06T11:09:24.358Z,100073.41
2023-02-06T11:11:30.616Z,100062.50
2023-02-06T11:13:36.492Z,100070.69
2023-02-06T11:15:44.555Z,100063.19
2023-02-06T11:17:48.110Z,100060.69
2023-02-06T11:19:53.454Z,100064.16
2023-02-06T11:21:58.141Z,100047.75
2023-02-06T11:24:09.921Z,100056.25
2023-02-06T11:26:15.098Z,100059.69
2023-02-06T11:28:21.196Z,100060.63
2023-02-06T11:30:32.096Z,100048.50
2023-02-06T11:32:37.745Z,100043.19
2023-02-06T11:34:54.708Z,100044.78
2023-02-06T11:36:59.747Z,100049.00
2023-02-06T11:39:05.427Z,100045.66
2023-02-06T11:41:18.862Z,100042.22
2023-02-06T11:43:23.357Z,100044.72
2023-02-06T11:45:29.811Z,100036.88
2023-02-06T11:47:37.191Z,100046.34
2023-02-06T11:49:40.711Z,100036.94
2023-02-06T11:51:51.387Z,100030.09
2023-02-06T11:53:58.854Z,100033.69
2023-02-06T11:56:11.941Z,100030.16
2023-02-06T11:58:26.167Z,100034.31
2023-02-06T12:00:30.393Z,100026.41
2023-02-06T12:02:35.229Z,100027.25
2023-02-06T12:04:41.010Z,100014.31
2023-02-06T12:06:44.411Z,100015.94
2023-02-06T12:08:50.976Z,100006.56
2023-02-06T12:10:57.167Z,100014.38
2023-02-06T12:13:05.882Z,100012.56
2023-02-06T12:15:36.202Z,100006.44
2023-02-06T12:17:38.665Z,100006.31
2023-02-06T12:19:46.498Z,100004.53
2023-02-06T12:21:52.243Z,99998.53
2023-02-06T12:23:59.692Z,99995.16
2023-02-06T12:26:06.525Z,99991.13
2023-02-06T12:28:13.975Z,99996.34
2023-02-06T12:30:28.365Z,99994.63
2023-02-06T12:32:34.232Z,99992.09
2023-02-06T12:34:49.640Z,100008.44
2023-02-06T12:37:00.475Z,100010.06
2023-02-06T12:39:08.210Z,100010.75
2023-02-06T12:41:24.145Z,100006.38
2023-02-06T12:43:28.662Z,99994.28
2023-02-06T12:45:40.204Z,99982.22
2023-02-06T12:47:47.209Z,99988.25
2023-02-06T12:50:01.998Z,99978.75
2023-02-06T12:52:10.839Z,99975.22
2023-02-06T12:54:18.254Z,99974.34
2023-02-06T12:56:29.456Z,99975.03
2023-02-06T12:58:39.950Z,99968.06
2023-02-06T13:00:53.572Z,99961.97
2023-02-06T13:03:07.708Z,99957.63
2023-02-06T13:05:22.892Z,99944.69
2023-02-06T13:07:28.327Z,99943.69
2023-02-06T13:09:36.325Z,99948.03
2023-02-06T13:11:40.911Z,99952.47
2023-02-06T13:13:44.022Z,99959.38
2023-02-06T13:15:54.838Z,99956.84
2023-02-06T13:17:58.043Z,99954.09
2023-02-06T13:20:03.308Z,99953.13
2023-02-06T13:22:40.308Z,99953.91
2023-02-06T13:24:46.039Z,99964.16
2023-02-06T13:27:19.213Z,99961.41
2023-02-06T13:29:26.660Z,99947.53
2023-02-06T13:31:31.912Z,99944.91
2023-02-06T13:33:41.112Z,99942.16
2023-02-06T13:35:57.368Z,99948.13
2023-02-06T13:38:28.460Z,99954.94
2023-02-06T13:40:35.333Z,99951.44
2023-02-06T13:42:42.687Z,99949.63
2023-02-06T13:44:46.072Z,99950.53
2023-02-06T13:47:29.769Z,99951.41
2023-02-06T13:49:44.900Z,99946.34
2023-02-06T13:51:50.340Z,99944.66
2023-02-06T13:54:13.505Z,99960.16
2023-02-06T13:56:39.241Z,99955.81
2023-02-06T13:58:47.612Z,99958.41
2023-02-06T14:00:52.617Z,99961.06
2023-02-06T14:02:57.412Z,99954.25
2023-02-06T14:05:01.404Z,99946.53
2023-02-06T14:07:17.782Z,99953.38
2023-02-06T14:09:48.895Z,99949.09
2023-02-06T14:12:18.426Z,99953.50
2023-02-06T14:14:32.868Z,99951.84
2023-02-06T14:16:44.291Z,99949.31
2023-02-06T14:18:51.284Z,99939.13
2023-02-06T14:21:02.197Z,99947.72
2023-02-06T14:23:12.656Z,99948.56
2023-02-06T14:25:32.444Z,99954.63
2023-02-06T14:27:46.260Z,99960.66
2023-02-06T14:29:55.606Z,99953.81
2023-02-06T14:32:26.113Z,99961.59
2023-02-06T14:34:37.950Z,99960.81
2023-02-06T14:36:51.093Z,99976.41
2023-02-06T14:39:20.313Z,99968.00
2023-02-06T14:41:23.949Z,99963.16
2023-02-06T14:43:31.558Z,99960.56
2023-02-06T14:45:42.151Z,99961.28
2023-02-06T14:47:45.810Z,99956.84
2023-02-06T14:49:49.373Z,99954.31
2023-02-06T14:51:53.042Z,99962.13
2023-02-06T14:53:58.233Z,99961.34
2023-02-06T14:56:10.590Z,99958.44
2023-02-06T14:58:20.557Z,99961.00
2023-02-06T15:00:26.161Z,99961.88
2023-02-06T15:02:33.567Z,99961.06
2023-02-06T15:04:46.168Z,99962.00
2023-02-06T15:06:53.019Z,99968.91
2023-02-06T15:08:56.388Z,99956.00
2023-02-06T15:11:01.018Z,99962.84
2023-02-06T15:13:04.405Z,99965.41
2023-02-06T15:15:17.455Z,99961.03
2023-02-06T15:17:23.354Z,99954.97
2023-02-06T15:19:28.333Z,99951.59
2023-02-06T15:21:31.408Z,99946.34
2023-02-06T15:23:44.520Z,99947.34
2023-02-06T15:26:00.402Z,99935.22
2023-02-06T15:28:07.134Z,99933.50
2023-02-06T15:30:20.884Z,99936.88
2023-02-06T15:32:30.802Z,99927.50
2023-02-06T15:34:34.108Z,99934.31
2023-02-06T15:36:39.508Z,99931.69
2023-02-06T15:38:43.393Z,99935.97
2023-02-06T15:40:48.058Z,99932.56
2023-02-06T15:42:51.697Z,99930.72
2023-02-06T15:44:54.837Z,99928.06
2023-02-06T15:46:58.694Z,99935.78
2023-02-06T15:49:03.607Z,99921.13
2023-02-06T15:51:20.289Z,99937.44
2023-02-06T15:53:31.249Z,99934.78
2023-02-06T15:55:36.081Z,99921.13
2023-02-06T15:57:41.295Z,99927.97
2023-02-06T15:59:44.573Z,99923.69
2023-02-06T16:01:48.523Z,99924.56
2023-02-06T16:03:54.865Z,99921.03
2023-02-06T16:05:59.923Z,99925.31
2023-02-06T16:08:03.968Z,99922.66
2023-02-06T16:10:22.111Z,99927.84
2023-02-06T16:12:25.347Z,99931.28
2023-02-06T16:14:35.451Z,99931.25
2023-02-06T16:16:38.773Z,99925.38
2023-02-06T16:18:41.960Z,99922.84
2023-02-06T16:20:46.774Z,99929.78
2023-02-06T16:22:51.391Z,99924.63
2023-02-06T16:24:56.429Z,99918.59
2023-02-06T16:27:00.185Z,99931.53
2023-02-06T16:29:06.256Z,99928.94
2023-02-06T16:31:12.498Z,99926.28
2023-02-06T16:33:23.424Z,99928.81
2023-02-06T16:35:27.218Z,99934.88
2023-02-06T16:37:31.817Z,99931.59
2023-02-06T16:39:36.232Z,99937.63
2023-02-06T16:41:40.626Z,99932.66
2023-02-06T16:43:43.709Z,99932.66
2023-02-06T16:45:47.924Z,99939.53
2023-02-06T16:47:51.366Z,99930.06
2023-02-06T16:49:54.344Z,99938.59
2023-02-06T16:51:57.569Z,99942.03
2023-02-06T16:54:00.607Z,99942.84
2023-02-06T16:56:05.589Z,99929.97
2023-02-06T16:58:12.335Z,99929.94
2023-02-06T17:00:20.912Z,99939.41
2023-02-06T17:02:24.096Z,99932.50
2023-02-06T17:04:27.361Z,99927.38
2023-02-06T17:06:31.373Z,99927.44
2023-02-06T17:08:40.424Z,99922.22
2023-02-06T17:10:43.578Z,99917.06
2023-02-06T17:12:48.633Z,99923.94
2023-02-06T17:14:51.966Z,99923.06
2023-02-06T17:16:55.961Z,99925.66
2023-02-06T17:18:59.107Z,99927.38
2023-02-06T17:21:02.231Z,99918.81
2023-02-06T17:23:05.986Z,99924.84
2023-02-06T17:25:09.592Z,99925.66
2023-02-06T17:27:15.419Z,99927.38
2023-02-06T17:29:20.360Z,99930.06
2023-02-06T17:31:23.929Z,99936.97
2023-02-06T17:33:27.261Z,99934.38
2023-02-06T17:35:30.425Z,99938.78
2023-02-06T17:37:33.784Z,99931.38
2023-02-06T17:39:36.987Z,99931.53
2023-02-06T17:41:40.261Z,99927.25
2023-02-06T17:43:43.312Z,99931.59
2023-02-06T17:45:48.176Z,99917.91
2023-02-06T17:47:51.508Z,99922.34
2023-02-06T17:49:54.915Z,99920.00
2023-02-06T17:51:57.999Z,99915.09
2023-02-06T17:54:01.056Z,99924.66
2023-02-06T17:56:06.246Z,99920.38
2023-02-06T17:58:09.781Z,99918.69
2023-02-06T18:00:16.588Z,99917.84
2023-02-06T18:02:21.385Z,99913.56
2023-02-06T18:04:24.741Z,99913.59
2023-02-06T18:06:27.945Z,99915.34
2023-02-06T18:08:31.091Z,99911.97
2023-02-06T18:10:34.284Z,99918.84
2023-02-06T18:12:37.627Z,99922.25
2023-02-06T18:14:40.954Z,99920.50
2023-02-06T18:16:45.541Z,99908.41
2023-02-06T18:18:50.676Z,99912.72
2023-02-06T18:20:53.880Z,99917.06
2023-02-06T18:22:57.062Z,99910.25
2023-02-06T18:25:03.062Z,99910.25
2023-02-06T18:27:06.893Z,99906.03
2023-02-06T18:29:10.152Z,99896.56
2023-02-06T18:31:22.958Z,99904.22
2023-02-06T18:33:26.024Z,99905.94
2023-02-06T18:35:30.632Z,99904.28
2023-02-06T18:37:35.199Z,99918.28
2023-02-06T18:39:38.716Z,99913.34
2023-02-06T18:41:59.438Z,99910.81
2023-02-06T18:44:04.870Z,99910.09
2023-02-06T18:46:08.235Z,99911.09
2023-02-06T18:48:13.133Z,99906.84
2023-02-06T18:50:16.615Z,99900.88
2023-02-06T18:52:21.218Z,99905.22
2023-02-06T18:54:24.255Z,99898.34
2023-02-06T18:56:27.455Z,99900.06
2023-02-06T18:58:30.545Z,99890.69
2023-02-06T19:00:35.755Z,99897.63
2023-02-06T19:02:39.187Z,99900.25
2023-02-06T19:04:42.310Z,99893.44
2023-02-06T19:06:46.044Z,99891.72
2023-02-06T19:08:50.537Z,99896.00
2023-02-06T19:10:53.939Z,99897.72
2023-02-06T19:12:57.172Z,99887.44
2023-02-06T19:15:00.629Z,99889.13
2023-02-06T19:17:03.806Z,99894.28
2023-02-06T19:19:07.733Z,99888.34
2023-02-06T19:21:12.869Z,99884.94
2023-02-06T19:23:15.970Z,99889.19
2023-02-06T19:25:21.116Z,99895.13
2023-02-06T19:27:26.133Z,99896.81
2023-02-06T19:29:35.516Z,99901.13
2023-02-06T19:31:40.630Z,99905.38
2023-02-06T19:33:43.960Z,99902.78
2023-02-06T19:35:47.403Z,99901.94
2023-02-06T19:37:51.848Z,99903.72
2023-02-06T19:39:55.123Z,99905.38
2023-02-06T19:42:00.121Z,99912.22
2023-02-06T19:44:05.129Z,99907.00
2023-02-06T19:46:11.890Z,99913.91
2023-02-06T19:48:15.134Z,99906.19
2023-02-06T19:50:18.349Z,99918.19
2023-02-06T19:52:21.718Z,99919.94
2023-02-06T19:54:24.814Z,99913.91
2023-02-06T19:56:30.932Z,99921.59
2023-02-06T19:58:35.339Z,99919.91
2023-02-06T20:00:38.841Z,99926.88
2023-02-06T20:02:42.030Z,99927.72
2023-02-06T20:04:46.238Z,99919.19
2023-02-06T20:06:51.240Z,99917.47
2023-02-06T20:08:54.743Z,99920.03
2023-02-06T20:10:58.672Z,99914.03
2023-02-06T20:13:02.264Z,99905.44
2023-02-06T20:15:07.771Z,99905.44
2023-02-06T20:17:11.683Z,99915.69
2023-02-06T20:19:18.451Z,99924.31
2023-02-06T20:21:24.199Z,99920.03
2023-02-06T20:23:27.824Z,99926.06
2023-02-06T20:25:31.281Z,99924.38
2023-02-06T20:27:34.314Z,99927.84
2023-02-06T20:29:39.351Z,99921.88
2023-02-06T20:31:43.920Z,99925.31
2023-02-06T20:33:47.598Z,99918.50
2023-02-06T20:35:50.571Z,99922.78
2023-02-06T20:37:53.578Z,99928.78
2023-02-06T20:39:56.852Z,99922.84
2023-02-06T20:42:00.123Z,99930.56
2023-02-06T20:44:03.542Z,99936.53
2023-02-06T20:46:07.567Z,99933.94
2023-02-06T20:48:12.236Z,99940.81
2023-02-06T20:50:16.637Z,99934.84
2023-02-06T20:52:19.859Z,99933.13
2023-02-06T20:54:24.106Z,99929.72
2023-02-06T20:56:27.218Z,99929.69
2023-02-06T20:58:30.699Z,99929.69
2023-02-06T21:00:33.801Z,99925.38
2023-02-06T21:02:38.149Z,99912.56
2023-02-06T21:04:42.819Z,99903.16
2023-02-06T21:06:48.095Z,99909.19
2023-02-06T21:08:56.572Z,99909.19
2023-02-06T21:10:59.679Z,99904.03
2023-02-06T21:13:02.737Z,99908.25
2023-02-06T21:15:06.482Z,99910.81
2023-02-06T21:17:10.216Z,99909.13
2023-02-06T21:19:15.108Z,99900.56
2023-02-06T21:21:20.267Z,99905.66
2023-02-06T21:23:23.654Z,99913.41
2023-02-06T21:25:26.922Z,99893.63
2023-02-06T21:27:30.662Z,99900.50
2023-02-06T21:29:33.881Z,99897.88
2023-02-06T21:31:38.848Z,99903.91
2023-02-06T21:33:42.163Z,99903.91
2023-02-06T21:35:50.472Z,99905.59
2023-02-06T21:37:55.192Z,99904.69
2023-02-06T21:39:58.536Z,99903.91
2023-02-06T21:42:01.759Z,99902.22
2023-02-06T21:44:05.389Z,99905.56
2023-02-06T21:46:08.792Z,99901.31
2023-02-06T21:48:12.086Z,99905.56
2023-02-06T21:50:15.650Z,99895.25
2023-02-06T21:52:18.815Z,99904.66
2023-02-06T21:54:24.792Z,99896.94
2023-02-06T21:56:29.188Z,99886.63
2023-02-06T21:58:32.316Z,99898.63
2023-02-06T22:00:35.651Z,99908.94
2023-02-06T22:02:38.828Z,99896.00
2023-02-06T22:04:42.054Z,99895.97
2023-02-06T22:06:45.145Z,99900.19
2023-02-06T22:08:52.632Z,99895.00
2023-02-06T22:10:57.138Z,99904.50
2023-02-06T22:13:00.187Z,99910.44
2023-02-06T22:15:03.560Z,99914.72
2023-02-06T22:17:07.916Z,99900.09
2023-02-06T22:19:11.582Z,99907.81
2023-02-06T22:21:16.294Z,99905.25
2023-02-06T22:23:19.442Z,99915.53
2023-02-06T22:25:22.644Z,99913.00
2023-02-06T22:27:27.073Z,99916.44
2023-02-06T22:29:31.060Z,99919.91
2023-02-06T22:31:35.224Z,99912.22
2023-02-06T22:33:38.879Z,99914.84
2023-02-06T22:35:41.995Z,99919.16
2023-02-06T22:37:45.034Z,99914.84
2023-02-06T22:39:48.347Z,99921.72
2023-02-06T22:41:51.550Z,99922.56
2023-02-06T22:43:56.030Z,99933.78
2023-02-06T22:45:59.193Z,99941.53
2023-02-06T22:48:02.313Z,99941.53
2023-02-06T22:50:05.618Z,99940.72
2023-02-06T22:52:28.649Z,99946.75
2023-02-06T22:54:31.899Z,99940.78
2023-02-06T22:56:41.204Z,99949.38
2023-02-06T22:58:44.466Z,99947.69
2023-02-06T23:00:48.907Z,99947.69
2023-02-06T23:02:52.054Z,99956.28
2023-02-06T23:04:55.035Z,99946.91
2023-02-06T23:06:58.260Z,99960.66
2023-02-06T23:09:02.673Z,99959.84
2023-02-06T23:11:06.128Z,99965.03
2023-02-06T23:13:09.140Z,99967.66
2023-02-06T23:15:12.222Z,99965.09
2023-02-06T23:17:16.593Z,99966.78
2023-02-06T23:19:20.137Z,99965.13
2023-02-06T23:21:24.277Z,99961.75
2023-02-06T23:23:27.456Z,99964.34
2023-02-06T23:25:30.904Z,99960.94
2023-02-06T23:27:34.078Z,99956.69
2023-02-06T23:29:37.774Z,99955.84
2023-02-06T23:31:40.851Z,99971.28
2023-02-06T23:33:45.559Z,99972.13
2023-02-06T23:35:48.767Z,99969.56
2023-02-06T23:37:51.870Z,99967.88
2023-02-06T23:39:54.909Z,99972.16
2023-02-06T23:41:58.077Z,99970.44
2023-02-06T23:44:02.516Z,99969.63
2023-02-06T23:46:07.287Z,99960.19
2023-02-06T23:48:10.444Z,99973.03
2023-02-06T23:50:14.972Z,99971.34
2023-02-06T23:52:18.063Z,99977.31
2023-02-06T23:54:21.096Z,99982.47
2023-02-06T23:56:26.725Z,99987.59
2023-02-06T23:58:29.884Z,99989.31
